createdAt,value
2019-04-07T00:00:18.637Z,8.9
2019-04-07T00:02:19.908Z,7.1
2019-04-07T00:04:18.655Z,6.2
2019-04-07T00:06:19.054Z,8.1
2019-04-07T00:08:18.779Z,7
2019-04-07T00:10:19.193Z,7.2
2019-04-07T00:12:18.954Z,7.1
2019-04-07T00:14:18.702Z,8.3
2019-04-07T00:16:18.559Z,8.3
2019-04-07T00:18:19.352Z,7.7
2019-04-07T00:20:19.812Z,7.3
2019-04-07T00:22:18.580Z,7.3
2019-04-07T00:24:19.325Z,7.5
2019-04-07T00:26:19.124Z,7.4
2019-04-07T00:28:19.404Z,8.2
2019-04-07T00:30:19.774Z,7.8
2019-04-07T00:32:18.562Z,7
2019-04-07T00:34:19.288Z,7.5
2019-04-07T00:36:18.966Z,7.8
2019-04-07T00:38:19.349Z,7.6
2019-04-07T00:40:18.651Z,8.5
2019-04-07T00:42:19.459Z,8.1
2019-04-07T00:44:19.154Z,7.9
2019-04-07T00:46:19.080Z,9.1
2019-04-07T00:48:18.833Z,7.5
2019-04-07T00:50:18.598Z,7.3
2019-04-07T00:52:19.484Z,7.9
2019-04-07T00:54:19.207Z,8.6
2019-04-07T00:56:19.230Z,7.8
2019-04-07T00:58:19.205Z,7.9
2019-04-07T01:00:19.138Z,7.8
2019-04-07T01:02:18.809Z,8.1
2019-04-07T01:04:18.953Z,8.1
2019-04-07T01:06:19.506Z,8.8
2019-04-07T01:08:19.246Z,7.8
2019-04-07T01:10:18.998Z,7.9
2019-04-07T01:12:19.282Z,8.2
2019-04-07T01:14:19.114Z,7.7
2019-04-07T01:16:19.829Z,7.7
2019-04-07T01:18:18.702Z,7.9
2019-04-07T01:20:19.517Z,8.8
2019-04-07T01:22:19.307Z,8.7
2019-04-07T01:24:19.045Z,7.5
2019-04-07T01:26:18.718Z,8.5
2019-04-07T01:28:18.542Z,8.1
2019-04-07T01:30:19.927Z,10
2019-04-07T01:32:19.183Z,9.3
2019-04-07T01:34:19.592Z,8.9
2019-04-07T01:36:19.075Z,9.2
2019-04-07T01:38:18.759Z,8.4
2019-04-07T01:40:18.993Z,7.4
2019-04-07T01:42:19.071Z,8.5
2019-04-07T01:44:18.990Z,9
2019-04-07T01:46:19.119Z,8.2
2019-04-07T01:48:19.270Z,8.7
2019-04-07T01:50:19.084Z,8.4
2019-04-07T01:52:19.514Z,8.4
2019-04-07T01:54:19.288Z,8.1
2019-04-07T01:56:19.446Z,8.4
2019-04-07T01:58:20.035Z,7.2
2019-04-07T02:00:18.885Z,8.5
2019-04-07T02:02:18.932Z,8.5
2019-04-07T02:04:19.145Z,9.1
2019-04-07T02:06:19.851Z,9.7
2019-04-07T02:08:18.603Z,7.9
2019-04-07T02:10:18.923Z,9.9
2019-04-07T02:12:19.842Z,7.7
2019-04-07T02:14:19.081Z,8.6
2019-04-07T02:16:19.166Z,8.3
2019-04-07T02:18:19.022Z,9.1
2019-04-07T02:20:19.000Z,9.1
2019-04-07T02:22:18.959Z,7.9
2019-04-07T02:24:19.249Z,8.7
2019-04-07T02:26:18.971Z,8.5
2019-04-07T02:28:18.819Z,9.4
2019-04-07T02:30:19.611Z,9
2019-04-07T02:32:18.565Z,10.3
2019-04-07T02:34:19.649Z,8.5
2019-04-07T02:36:25.607Z,8.3
2019-04-07T02:38:19.347Z,8.1
2019-04-07T02:40:19.131Z,9.8
2019-04-07T02:42:19.007Z,7.5
2019-04-07T02:44:18.948Z,9.8
2019-04-07T02:46:20.249Z,8.5
2019-04-07T02:48:19.920Z,9.4
2019-04-07T02:50:18.724Z,8.7
2019-04-07T02:52:19.430Z,8.4
2019-04-07T02:54:19.460Z,8.8
2019-04-07T02:56:18.897Z,8.7
2019-04-07T02:58:18.819Z,9
2019-04-07T03:00:18.617Z,8.7
2019-04-07T03:02:19.546Z,9.9
2019-04-07T03:04:20.408Z,7
2019-04-07T03:06:33.738Z,8.7
2019-04-07T03:08:19.012Z,8.6
2019-04-07T03:10:19.268Z,8
2019-04-07T03:12:19.195Z,8.6
2019-04-07T03:14:19.686Z,7.9
2019-04-07T03:16:19.390Z,8
2019-04-07T03:18:20.130Z,7.8
2019-04-07T03:20:18.897Z,8.4
2019-04-07T03:22:18.599Z,8.5
2019-04-07T03:24:19.533Z,9.5
2019-04-07T03:26:18.661Z,8.3
2019-04-07T03:28:19.706Z,7.8
2019-04-07T03:30:20.576Z,8.6
2019-04-07T03:32:22.276Z,8.8
2019-04-07T03:34:20.614Z,8
2019-04-07T03:36:21.190Z,9.9
2019-04-07T03:38:18.954Z,8.6
2019-04-07T03:40:19.992Z,7.9
2019-04-07T03:42:18.772Z,7.9
2019-04-07T03:44:20.212Z,8.5
2019-04-07T03:46:18.996Z,7.8
2019-04-07T03:48:18.719Z,7.6
2019-04-07T03:50:19.469Z,8.6
2019-04-07T03:52:19.459Z,9.4
2019-04-07T03:54:19.380Z,9
2019-04-07T03:56:18.721Z,9.3
2019-04-07T03:58:19.651Z,9.7
2019-04-07T04:00:19.475Z,8.7
2019-04-07T04:02:19.658Z,8
2019-04-07T04:04:19.432Z,10.4
2019-04-07T04:06:19.352Z,9.1
2019-04-07T04:08:19.319Z,9.4
2019-04-07T04:10:19.282Z,9.8
2019-04-07T04:12:19.048Z,8.9
2019-04-07T04:14:18.953Z,9.2
2019-04-07T04:16:20.103Z,9.5
2019-04-07T04:18:18.965Z,10
2019-04-07T04:20:19.655Z,8.4
2019-04-07T04:22:19.452Z,7.5
2019-04-07T04:24:19.893Z,9.1
2019-04-07T04:26:18.595Z,7.5
2019-04-07T04:28:20.295Z,8.6
2019-04-07T04:30:19.487Z,8.9
2019-04-07T04:32:19.138Z,7.9
2019-04-07T04:34:19.156Z,9.2
2019-04-07T04:36:19.165Z,9.3
2019-04-07T04:38:19.789Z,8.4
2019-04-07T04:40:20.516Z,10.5
2019-04-07T04:42:20.244Z,9.3
2019-04-07T04:44:19.152Z,8.5
2019-04-07T04:46:18.944Z,8.3
2019-04-07T04:48:19.620Z,8.6
2019-04-07T04:50:19.473Z,8.9
2019-04-07T04:52:20.556Z,7.8
2019-04-07T04:54:19.449Z,8.3
2019-04-07T04:56:18.736Z,8.8
2019-04-07T04:58:19.296Z,8.8
2019-04-07T05:00:20.233Z,8.4
2019-04-07T05:02:19.057Z,8.3
2019-04-07T05:04:18.946Z,8
2019-04-07T05:06:18.681Z,9.4
2019-04-07T05:08:20.182Z,10.4
2019-04-07T05:10:19.221Z,11
2019-04-07T05:12:19.020Z,11.4
2019-04-07T05:14:18.751Z,12.2
2019-04-07T05:16:19.717Z,10.8
2019-04-07T05:18:18.494Z,9.8
2019-04-07T05:20:19.184Z,10.2
2019-04-07T05:22:18.882Z,9.1
2019-04-07T05:24:19.476Z,11.7
2019-04-07T05:26:18.983Z,10.1
2019-04-07T05:28:19.108Z,9
2019-04-07T05:30:19.068Z,9
2019-04-07T05:32:18.739Z,8.7
2019-04-07T05:34:21.915Z,9.1
2019-04-07T05:36:19.047Z,9.3
2019-04-07T05:38:19.116Z,8.9
2019-04-07T05:40:19.362Z,8.5
2019-04-07T05:42:18.838Z,9.3
2019-04-07T05:44:18.896Z,10.5
2019-04-07T05:46:19.388Z,9
2019-04-07T05:48:20.267Z,10
2019-04-07T05:50:20.039Z,9.1
2019-04-07T05:52:19.332Z,8.8
2019-04-07T05:54:20.643Z,9.5
2019-04-07T05:56:18.637Z,9
2019-04-07T05:58:20.041Z,9.1
2019-04-07T06:00:19.083Z,8.2
2019-04-07T06:02:19.445Z,8.6
2019-04-07T06:04:19.296Z,8.4
2019-04-07T06:06:20.493Z,9.4
2019-04-07T06:08:27.596Z,11.2
2019-04-07T06:10:22.270Z,8.9
2019-04-07T06:12:19.341Z,9.6
2019-04-07T06:14:19.274Z,9.9
2019-04-07T06:16:20.411Z,9.1
2019-04-07T06:18:19.474Z,9.8
2019-04-07T06:20:19.206Z,9.3
2019-04-07T06:22:20.731Z,9.2
2019-04-07T06:24:22.143Z,10.7
2019-04-07T06:26:18.740Z,9.1
2019-04-07T06:28:19.062Z,8.9
2019-04-07T06:30:19.118Z,11.1
2019-04-07T06:32:19.272Z,10
2019-04-07T06:34:18.968Z,9.9
2019-04-07T06:36:20.179Z,9.7
2019-04-07T06:38:29.446Z,10.1
2019-04-07T06:40:20.620Z,9.1
2019-04-07T06:42:19.633Z,9.4
2019-04-07T06:44:21.957Z,9.5
2019-04-07T06:46:19.585Z,10.6
2019-04-07T06:48:18.500Z,11
2019-04-07T06:50:19.258Z,10.4
2019-04-07T06:52:19.303Z,10.3
2019-04-07T06:54:22.112Z,11.3
2019-04-07T06:56:19.693Z,10.5
2019-04-07T06:58:19.713Z,10.2
2019-04-07T07:00:22.055Z,10.5
2019-04-07T07:02:19.634Z,10.3
2019-04-07T07:04:19.381Z,12
2019-04-07T07:06:18.875Z,10.4
2019-04-07T07:08:20.892Z,9.4
2019-04-07T07:10:26.595Z,10.5
2019-04-07T07:12:24.523Z,12.1
2019-04-07T07:14:31.135Z,11.1
2019-04-07T07:16:19.582Z,11.5
2019-04-07T07:18:21.175Z,9.6
2019-04-07T07:20:18.829Z,10.9
2019-04-07T07:22:18.658Z,11
2019-04-07T07:24:24.292Z,10.4
2019-04-07T07:26:21.405Z,10.8
2019-04-07T07:28:19.408Z,12.3
2019-04-07T07:30:20.256Z,11.5
2019-04-07T07:32:19.035Z,10.2
2019-04-07T07:34:18.773Z,10.7
2019-04-07T07:36:21.406Z,11.2
2019-04-07T07:38:19.424Z,10.6
2019-04-07T07:40:19.432Z,11.8
2019-04-07T07:42:22.378Z,11.2
2019-04-07T07:44:19.031Z,11
2019-04-07T07:46:21.728Z,11.4
2019-04-07T07:48:20.739Z,11.8
2019-04-07T07:50:19.075Z,10.7
2019-04-07T07:52:20.733Z,11.9
2019-04-07T07:54:18.543Z,11.7
2019-04-07T07:56:18.740Z,11.2
2019-04-07T07:58:19.478Z,10.7
2019-04-07T08:00:18.920Z,11.4
2019-04-07T08:02:19.867Z,10.3
2019-04-07T08:04:19.269Z,10.4
2019-04-07T08:06:19.460Z,11.2
2019-04-07T08:08:19.971Z,9.5
2019-04-07T08:10:19.272Z,9.1
2019-04-07T08:12:18.838Z,9.8
2019-04-07T08:14:18.547Z,10.2
2019-04-07T08:16:19.243Z,10.7
2019-04-07T08:18:20.713Z,9.2
2019-04-07T08:20:19.637Z,8.3
2019-04-07T08:22:27.208Z,10.2
2019-04-07T08:24:19.200Z,9.4
2019-04-07T08:26:19.348Z,11.2
2019-04-07T08:28:20.579Z,9.2
2019-04-07T08:30:19.273Z,8.8
2019-04-07T08:32:19.733Z,10
2019-04-07T08:34:18.957Z,9
2019-04-07T08:36:18.522Z,8.1
2019-04-07T08:38:21.257Z,8
2019-04-07T08:40:18.897Z,8
2019-04-07T08:42:19.793Z,7.8
2019-04-07T08:44:19.491Z,8.4
2019-04-07T08:46:20.031Z,10.8
2019-04-07T08:48:20.580Z,7.3
2019-04-07T08:50:20.880Z,8.7
2019-04-07T08:52:19.606Z,7.3
2019-04-07T08:54:19.946Z,7.9
2019-04-07T08:56:18.784Z,7.8
2019-04-07T08:58:25.524Z,7.9
2019-04-07T09:00:18.621Z,7.7
2019-04-07T09:02:20.032Z,7.7
2019-04-07T09:04:18.940Z,8.4
2019-04-07T09:06:18.581Z,6.7
2019-04-07T09:08:19.216Z,8.5
2019-04-07T09:10:20.630Z,7.5
2019-04-07T09:12:19.440Z,7.7
2019-04-07T09:14:19.113Z,8
2019-04-07T09:16:19.930Z,7.8
2019-04-07T09:18:19.149Z,6.8
2019-04-07T09:20:19.027Z,6.3
2019-04-07T09:22:22.098Z,7.1
2019-04-07T09:24:18.850Z,7.1
2019-04-07T09:26:21.117Z,7.2
2019-04-07T09:28:21.123Z,7.6
2019-04-07T09:30:18.721Z,7.1
2019-04-07T09:32:19.249Z,6.6
2019-04-07T09:34:20.656Z,6.8
2019-04-07T09:36:19.097Z,7.4
2019-04-07T09:38:18.852Z,7
2019-04-07T09:40:19.042Z,7
2019-04-07T09:42:18.719Z,7.8
2019-04-07T09:44:19.786Z,6.2
2019-04-07T09:46:19.062Z,6.3
2019-04-07T09:48:20.264Z,7.5
2019-04-07T09:50:18.617Z,6.9
2019-04-07T09:52:18.941Z,7
2019-04-07T09:54:20.475Z,6.7
2019-04-07T09:56:18.793Z,7.5
2019-04-07T09:58:19.226Z,6.9
2019-04-07T10:00:21.520Z,6.5
2019-04-07T10:02:18.601Z,7.4
2019-04-07T10:04:19.209Z,7.1
2019-04-07T10:06:18.660Z,7.1
2019-04-07T10:08:20.251Z,7.7
2019-04-07T10:10:19.163Z,7.2
2019-04-07T10:12:19.646Z,6.5
2019-04-07T10:14:19.656Z,6.9
2019-04-07T10:16:18.896Z,6.2
2019-04-07T10:18:19.208Z,6.4
2019-04-07T10:20:21.998Z,7.6
2019-04-07T10:22:18.768Z,7.4
2019-04-07T10:24:19.730Z,7.3
2019-04-07T10:26:20.076Z,6.2
2019-04-07T10:28:18.896Z,7.2
2019-04-07T10:30:18.884Z,7.2
2019-04-07T10:32:18.881Z,5.7
2019-04-07T10:34:18.630Z,6.7
2019-04-07T10:36:19.452Z,6.8
2019-04-07T10:38:19.252Z,7
2019-04-07T10:40:21.154Z,6.2
2019-04-07T10:42:19.133Z,7.2
2019-04-07T10:44:19.420Z,5.6
2019-04-07T10:46:20.323Z,6.6
2019-04-07T10:48:19.234Z,6.2
2019-04-07T10:50:18.843Z,7.1
2019-04-07T10:52:19.647Z,6.8
2019-04-07T10:54:19.924Z,6.2
2019-04-07T10:56:18.837Z,7.1
2019-04-07T10:58:19.808Z,6.8
2019-04-07T11:00:20.191Z,7.3
2019-04-07T11:02:19.204Z,6.4
2019-04-07T11:04:19.229Z,6.2
2019-04-07T11:06:19.158Z,6.9
2019-04-07T11:08:18.958Z,6.5
2019-04-07T11:10:29.671Z,6.3
2019-04-07T11:12:19.884Z,7
2019-04-07T11:14:18.825Z,6.7
2019-04-07T11:16:19.449Z,6.5
2019-04-07T11:18:19.181Z,6.8
2019-04-07T11:20:19.363Z,6.7
2019-04-07T11:22:19.849Z,6.6
2019-04-07T11:24:18.737Z,6.6
2019-04-07T11:26:19.442Z,7.2
2019-04-07T11:28:19.648Z,6.9
2019-04-07T11:30:19.481Z,6.8
2019-04-07T11:32:19.549Z,6.4
2019-04-07T11:34:19.452Z,5.8
2019-04-07T11:36:21.354Z,7
2019-04-07T11:38:19.080Z,6
2019-04-07T11:40:19.216Z,5.9
2019-04-07T11:42:19.690Z,5.9
2019-04-07T11:44:20.296Z,6
2019-04-07T11:46:19.115Z,5.5
2019-04-07T11:48:18.831Z,5.8
2019-04-07T11:50:17.772Z,5.5
2019-04-07T11:52:20.013Z,6.1
2019-04-07T11:54:19.725Z,5.3
2019-04-07T11:56:19.553Z,6
2019-04-07T11:58:23.886Z,5.7
2019-04-07T12:00:19.493Z,5.7
2019-04-07T12:02:20.770Z,5.9
2019-04-07T12:04:19.697Z,5.7
2019-04-07T12:06:19.221Z,5.3
2019-04-07T12:08:18.781Z,5.6
2019-04-07T12:10:19.003Z,6.2
2019-04-07T12:12:18.732Z,6.5
2019-04-07T12:14:20.282Z,5.7
2019-04-07T12:16:18.789Z,6.4
2019-04-07T12:18:19.186Z,5.4
2019-04-07T12:20:19.523Z,5
2019-04-07T12:22:19.309Z,6.3
2019-04-07T12:24:19.066Z,5.9
2019-04-07T12:26:20.386Z,6.1
2019-04-07T12:28:20.274Z,6.1
2019-04-07T12:30:21.256Z,5.6
2019-04-07T12:32:19.129Z,6.2
2019-04-07T12:34:19.046Z,6.5
2019-04-07T12:36:18.929Z,5.4
2019-04-07T12:38:17.704Z,5.1
2019-04-07T12:40:22.211Z,5.4
2019-04-07T12:42:18.504Z,5.7
2019-04-07T12:44:19.908Z,5
2019-04-07T12:46:19.487Z,6.9
2019-04-07T12:48:19.584Z,5.9
2019-04-07T12:50:20.682Z,5.6
2019-04-07T12:52:19.534Z,5.1
2019-04-07T12:54:18.921Z,5.2
2019-04-07T12:56:18.068Z,6.2
2019-04-07T12:58:17.843Z,6.5
2019-04-07T13:00:19.088Z,5.8
2019-04-07T13:02:20.006Z,6
2019-04-07T13:04:17.972Z,5.5
2019-04-07T13:06:18.180Z,5.9
2019-04-07T13:08:20.029Z,5.5
2019-04-07T13:10:18.014Z,6.6
2019-04-07T13:12:22.210Z,5.8
2019-04-07T13:14:18.473Z,6.2
2019-04-07T13:16:22.387Z,5.3
2019-04-07T13:18:18.794Z,5.9
2019-04-07T13:20:18.931Z,5.5
2019-04-07T13:22:18.323Z,6.4
2019-04-07T13:24:28.743Z,7.5
2019-04-07T13:26:17.672Z,6.1
2019-04-07T13:28:18.340Z,6.5
2019-04-07T13:30:18.198Z,6
2019-04-07T13:32:18.727Z,5.7
2019-04-07T13:34:18.522Z,6
2019-04-07T13:36:18.043Z,5.6
2019-04-07T13:38:17.849Z,5
2019-04-07T13:40:18.343Z,6.1
2019-04-07T13:42:18.269Z,5.7
2019-04-07T13:44:18.051Z,5.2
2019-04-07T13:46:24.341Z,6.2
2019-04-07T13:48:19.437Z,5.6
2019-04-07T13:50:17.939Z,5
2019-04-07T13:52:20.038Z,6.5
2019-04-07T13:54:18.936Z,5.7
2019-04-07T13:56:18.625Z,5.8
2019-04-07T13:58:18.150Z,5.4
2019-04-07T14:00:18.462Z,5.8
2019-04-07T14:02:18.561Z,5.5
2019-04-07T14:04:18.337Z,6
2019-04-07T14:06:17.788Z,6.1
2019-04-07T14:08:17.537Z,5.5
2019-04-07T14:10:18.064Z,5.9
2019-04-07T14:12:17.860Z,6.6
2019-04-07T14:14:17.905Z,5.1
2019-04-07T14:16:17.847Z,5.3
2019-04-07T14:18:17.650Z,4.9
2019-04-07T14:20:19.277Z,5.5
2019-04-07T14:22:19.268Z,5.1
2019-04-07T14:24:18.672Z,5.1
2019-04-07T14:26:17.882Z,5.7
2019-04-07T14:28:17.902Z,5.1
2019-04-07T14:30:18.099Z,4.6
2019-04-07T14:32:18.431Z,5.2
2019-04-07T14:34:18.245Z,5.5
2019-04-07T14:36:17.671Z,5
2019-04-07T14:38:18.943Z,6.1
2019-04-07T14:40:18.395Z,5.4
2019-04-07T14:42:18.742Z,6.5
2019-04-07T14:44:18.636Z,6.3
2019-04-07T14:46:18.435Z,4.6
2019-04-07T14:48:18.480Z,4.6
2019-04-07T14:50:18.958Z,6
2019-04-07T14:52:17.603Z,4.5
2019-04-07T14:54:18.523Z,5
2019-04-07T14:56:18.608Z,5
2019-04-07T14:58:19.206Z,5.3
2019-04-07T15:00:18.343Z,5.3
2019-04-07T15:02:17.948Z,4.9
2019-04-07T15:04:18.178Z,5.1
2019-04-07T15:06:18.534Z,4.8
2019-04-07T15:08:18.417Z,4.5
2019-04-07T15:10:19.146Z,5
2019-04-07T15:12:22.996Z,4.9
2019-04-07T15:14:18.024Z,5.4
2019-04-07T15:16:18.573Z,5.1
2019-04-07T15:18:18.668Z,5.4
2019-04-07T15:20:18.418Z,5.7
2019-04-07T15:22:18.472Z,4.9
2019-04-07T15:24:18.689Z,5.5
2019-04-07T15:26:18.061Z,4.5
2019-04-07T15:28:17.831Z,5.2
2019-04-07T15:30:18.131Z,4.5
2019-04-07T15:32:18.139Z,5.7
2019-04-07T15:34:18.656Z,4.8
2019-04-07T15:36:19.544Z,5.2
2019-04-07T15:38:20.549Z,4.2
2019-04-07T15:40:18.173Z,5.1
2019-04-07T15:42:32.999Z,4.9
2019-04-07T15:44:18.462Z,4.8
2019-04-07T15:46:19.224Z,4.6
2019-04-07T15:48:19.085Z,3.8
2019-04-07T15:50:18.097Z,4
2019-04-07T15:52:18.545Z,5.3
2019-04-07T15:54:21.441Z,4.3
2019-04-07T15:56:19.389Z,4
2019-04-07T15:58:18.409Z,5.1
2019-04-07T16:00:18.485Z,4.1
2019-04-07T16:02:18.160Z,4.6
2019-04-07T16:04:21.258Z,4.9
2019-04-07T16:06:17.928Z,5.7
2019-04-07T16:08:18.099Z,14.8
2019-04-07T16:10:21.124Z,6.4
2019-04-07T16:12:18.518Z,9.7
2019-04-07T16:14:18.265Z,15.5
2019-04-07T16:16:17.803Z,11.6
2019-04-07T16:18:17.521Z,21.2
2019-04-07T16:20:22.825Z,51.4
2019-04-07T16:22:18.201Z,78.6
2019-04-07T16:24:18.930Z,36.5
2019-04-07T16:26:18.101Z,15.4
2019-04-07T16:28:18.634Z,17.4
2019-04-07T16:30:19.414Z,11.5
2019-04-07T16:32:18.107Z,21.3
2019-04-07T16:34:19.128Z,10.4
2019-04-07T16:36:18.381Z,4.4
2019-04-07T16:38:18.136Z,5.6
2019-04-07T16:40:18.494Z,4.3
2019-04-07T16:42:18.193Z,4.4
2019-04-07T16:44:17.926Z,5.4
2019-04-07T16:46:20.867Z,4.9
2019-04-07T16:48:17.536Z,5
2019-04-07T16:50:20.267Z,4.8
2019-04-07T16:52:18.846Z,4.6
2019-04-07T16:54:18.511Z,4.4
2019-04-07T16:56:19.976Z,5.1
2019-04-07T16:58:17.877Z,5.1
2019-04-07T17:00:17.995Z,5.1
2019-04-07T17:02:18.294Z,4.6
2019-04-07T17:04:17.990Z,4.7
2019-04-07T17:06:17.867Z,5.1
2019-04-07T17:08:21.043Z,4.7
2019-04-07T17:10:18.724Z,5.2
2019-04-07T17:12:18.463Z,5.9
2019-04-07T17:14:19.278Z,5.4
2019-04-07T17:16:22.853Z,5.2
2019-04-07T17:18:20.134Z,5.1
2019-04-07T17:20:17.853Z,5.5
2019-04-07T17:22:18.552Z,5.8
2019-04-07T17:24:19.626Z,7.6
2019-04-07T17:26:18.689Z,8.1
2019-04-07T17:28:19.557Z,6.4
2019-04-07T17:30:20.002Z,6.5
2019-04-07T17:32:18.866Z,5
2019-04-07T17:34:18.600Z,5.2
2019-04-07T17:36:21.576Z,4.8
2019-04-07T17:38:20.094Z,5.4
2019-04-07T17:40:18.575Z,5.2
2019-04-07T17:42:20.141Z,4.4
2019-04-07T17:44:22.069Z,5.6
2019-04-07T17:46:20.215Z,5
2019-04-07T17:48:20.172Z,4.9
2019-04-07T17:50:19.940Z,4.5
2019-04-07T17:52:19.678Z,4.9
2019-04-07T17:54:21.332Z,6.2
2019-04-07T17:56:20.157Z,5.3
2019-04-07T17:58:19.058Z,4.3
2019-04-07T18:00:18.807Z,5.3
2019-04-07T18:02:18.651Z,4.4
2019-04-07T18:04:19.347Z,5.5
2019-04-07T18:06:19.448Z,5
2019-04-07T18:08:19.859Z,5.2
2019-04-07T18:10:22.429Z,6.3
2019-04-07T18:12:19.808Z,5.4
2019-04-07T18:14:19.135Z,5.5
2019-04-07T18:16:18.967Z,4.5
2019-04-07T18:18:23.320Z,6.6
2019-04-07T18:20:19.436Z,6.8
2019-04-07T18:22:21.390Z,5.9
2019-04-07T18:24:19.246Z,5.6
2019-04-07T18:26:19.012Z,6.6
2019-04-07T18:28:21.618Z,6.2
2019-04-07T18:30:18.554Z,5.2
2019-04-07T18:32:19.278Z,5.8
2019-04-07T18:34:23.014Z,6.1
2019-04-07T18:36:19.157Z,4.9
2019-04-07T18:38:19.491Z,6
2019-04-07T18:40:18.672Z,6
2019-04-07T18:42:19.647Z,5.9
2019-04-07T18:44:20.357Z,6
2019-04-07T18:46:19.376Z,5.7
2019-04-07T18:48:19.166Z,5.9
2019-04-07T18:50:18.836Z,5.7
2019-04-07T18:52:21.592Z,5.6
2019-04-07T18:54:19.311Z,6.1
2019-04-07T18:56:20.282Z,5.5
2019-04-07T18:58:19.024Z,4.9
2019-04-07T19:00:18.962Z,5.5
2019-04-07T19:02:19.351Z,5.9
2019-04-07T19:04:21.517Z,5.3
2019-04-07T19:06:20.123Z,6.4
2019-04-07T19:08:20.083Z,5.7
2019-04-07T19:10:22.659Z,4.9
2019-04-07T19:12:21.502Z,5.6
2019-04-07T19:14:32.700Z,5.7
2019-04-07T19:16:21.682Z,6.3
2019-04-07T19:18:19.160Z,5.8
2019-04-07T19:20:19.335Z,6.3
2019-04-07T19:22:21.127Z,6.5
2019-04-07T19:24:19.524Z,6.5
2019-04-07T19:26:18.726Z,6
2019-04-07T19:28:19.434Z,7.4
2019-04-07T19:30:19.405Z,5.6
2019-04-07T19:32:20.731Z,6
2019-04-07T19:34:18.955Z,6
2019-04-07T19:36:20.367Z,6.1
2019-04-07T19:38:20.874Z,5.9
2019-04-07T19:40:18.828Z,6.3
2019-04-07T19:42:18.528Z,5.5
2019-04-07T19:44:20.067Z,6.8
2019-04-07T19:46:20.236Z,7.2
2019-04-07T19:48:19.042Z,9.6
2019-04-07T19:50:21.392Z,11.3
2019-04-07T19:52:19.030Z,11.2
2019-04-07T19:54:19.505Z,11.3
2019-04-07T19:56:18.888Z,7.6
2019-04-07T19:58:19.599Z,7.6
2019-04-07T20:00:24.553Z,8.2
2019-04-07T20:02:19.617Z,7.4
2019-04-07T20:04:19.337Z,8.1
2019-04-07T20:06:22.171Z,7.1
2019-04-07T20:08:20.649Z,6.8
2019-04-07T20:10:21.977Z,6.8
2019-04-07T20:12:18.508Z,8.1
2019-04-07T20:14:19.766Z,7.5
2019-04-07T20:16:19.787Z,7.6
2019-04-07T20:18:18.753Z,7.1
2019-04-07T20:20:19.556Z,6.7
2019-04-07T20:22:22.617Z,7.2
2019-04-07T20:24:19.634Z,6.6
2019-04-07T20:26:21.753Z,6.5
2019-04-07T20:28:19.535Z,6.8
2019-04-07T20:30:19.294Z,7
2019-04-07T20:32:21.184Z,7.2
2019-04-07T20:34:18.641Z,10.2
2019-04-07T20:36:23.171Z,9.1
2019-04-07T20:38:19.297Z,7.5
2019-04-07T20:40:19.306Z,6.7
2019-04-07T20:42:19.280Z,7.4
2019-04-07T20:44:19.053Z,8.2
2019-04-07T20:46:20.719Z,7.9
2019-04-07T20:48:19.241Z,6.6
2019-04-07T20:50:19.522Z,5.9
2019-04-07T20:52:22.188Z,7.1
2019-04-07T20:54:19.500Z,8.1
2019-04-07T20:56:18.769Z,6.4
2019-04-07T20:58:23.730Z,8.3
2019-04-07T21:00:18.914Z,7.6
2019-04-07T21:02:20.746Z,7.7
2019-04-07T21:04:19.860Z,7.3
2019-04-07T21:06:18.929Z,8.3
2019-04-07T21:08:18.710Z,7.6
2019-04-07T21:10:19.050Z,8.5
2019-04-07T21:12:18.791Z,7.6
2019-04-07T21:14:18.727Z,7.8
2019-04-07T21:16:22.676Z,7.4
2019-04-07T21:18:18.848Z,7.6
2019-04-07T21:20:18.617Z,6.5
2019-04-07T21:22:19.312Z,6.5
2019-04-07T21:24:19.989Z,7
2019-04-07T21:26:18.541Z,8.1
2019-04-07T21:28:19.236Z,7.2
2019-04-07T21:30:18.914Z,8.2
2019-04-07T21:32:18.838Z,7
2019-04-07T21:34:18.566Z,14.8
2019-04-07T21:36:19.135Z,11.8
2019-04-07T21:38:21.776Z,15.7
2019-04-07T21:40:18.733Z,11.5
2019-04-07T21:42:20.918Z,10.3
2019-04-07T21:44:19.996Z,8.9
2019-04-07T21:46:22.158Z,9.1
2019-04-07T21:48:20.004Z,6.9
2019-04-07T21:50:20.836Z,8.3
2019-04-07T21:52:20.860Z,7
2019-04-07T21:54:19.441Z,7.3
2019-04-07T21:56:18.834Z,6.7
2019-04-07T21:58:19.560Z,9
2019-04-07T22:00:18.820Z,7.4
2019-04-07T22:02:19.440Z,6.4
2019-04-07T22:04:20.901Z,7.1
2019-04-07T22:06:18.924Z,7.1
2019-04-07T22:08:19.696Z,7.7
2019-04-07T22:10:20.704Z,5.8
2019-04-07T22:12:18.824Z,7.1
2019-04-07T22:14:18.873Z,7
2019-04-07T22:16:21.770Z,7.2
2019-04-07T22:18:19.494Z,6.7
2019-04-07T22:20:20.571Z,6.6
2019-04-07T22:22:19.283Z,6
2019-04-07T22:24:18.998Z,6
2019-04-07T22:26:20.123Z,7.3
2019-04-07T22:28:19.035Z,6.9
2019-04-07T22:30:18.805Z,6.6
2019-04-07T22:32:20.766Z,6.2
2019-04-07T22:34:18.693Z,6.6
2019-04-07T22:36:18.838Z,7.4
2019-04-07T22:38:21.922Z,7.4
2019-04-07T22:40:19.285Z,6.9
2019-04-07T22:42:19.241Z,7
2019-04-07T22:44:20.314Z,6.4
2019-04-07T22:46:23.175Z,6.7
2019-04-07T22:48:22.742Z,6.5
2019-04-07T22:50:18.745Z,7
2019-04-07T22:52:20.397Z,7.3
2019-04-07T22:54:19.211Z,5.7
2019-04-07T22:56:20.227Z,6.8
2019-04-07T22:58:20.058Z,5.9
2019-04-07T23:00:19.095Z,7.4
2019-04-07T23:02:18.872Z,7.4
2019-04-07T23:04:18.557Z,6.8
2019-04-07T23:06:19.061Z,7.9
2019-04-07T23:08:18.871Z,7.4
2019-04-07T23:10:19.712Z,5.6
2019-04-07T23:12:19.475Z,6.1
2019-04-07T23:14:19.885Z,6.6
2019-04-07T23:16:18.960Z,6.5
2019-04-07T23:18:20.657Z,6.9
2019-04-07T23:20:20.013Z,6.3
2019-04-07T23:22:18.751Z,6.7
2019-04-07T23:24:19.387Z,6.9
2019-04-07T23:26:18.524Z,6.7
2019-04-07T23:28:19.242Z,6.4
2019-04-07T23:30:19.373Z,7.4
2019-04-07T23:32:19.188Z,7.2
2019-04-07T23:34:19.058Z,6.4
2019-04-07T23:36:20.068Z,8
2019-04-07T23:38:19.732Z,5.5
2019-04-07T23:40:19.014Z,7
2019-04-07T23:42:18.718Z,7
2019-04-07T23:44:20.228Z,6.2
2019-04-07T23:46:24.033Z,7.4
2019-04-07T23:48:18.759Z,7.5
2019-04-07T23:50:19.478Z,6.5
2019-04-07T23:52:19.179Z,6
2019-04-07T23:54:18.888Z,7.5
2019-04-07T23:56:19.780Z,7.1
2019-04-07T23:58:18.761Z,7.4
